Metar z połowy godziny Komunikat METAR ze strony awiacja.imgw.pl Metar G30 EPWR METAR EPWR 241930Z 24003KT 190V310 CAVOK 14/08 Q1013 =